createdAt,value
2022-12-23T00:04:28.265Z,30.89
2022-12-23T00:09:34.293Z,30.50
2022-12-23T00:14:55.184Z,30.39
2022-12-23T00:19:59.917Z,30.12
2022-12-23T00:25:03.369Z,29.73
2022-12-23T00:30:10.274Z,31.92
2022-12-23T00:35:15.104Z,28.96
2022-12-23T00:40:36.109Z,27.21
2022-12-23T00:45:42.028Z,26.60
2022-12-23T00:50:46.822Z,27.83
2022-12-23T00:55:50.815Z,28.65
2022-12-23T01:01:12.665Z,29.00
2022-12-23T01:06:17.540Z,29.95
2022-12-23T01:11:23.263Z,29.73
2022-12-23T01:16:26.707Z,30.83
2022-12-23T01:21:34.060Z,30.51
2022-12-23T01:26:39.625Z,32.67
2022-12-23T01:31:43.090Z,31.85
2022-12-23T01:36:50.151Z,31.45
2022-12-23T01:42:15.610Z,32.23
2022-12-23T01:47:23.591Z,31.26
2022-12-23T01:52:31.250Z,30.92
2022-12-23T01:57:35.424Z,30.84
2022-12-23T02:03:01.834Z,29.71
2022-12-23T02:08:27.170Z,28.23
2022-12-23T02:14:01.623Z,27.69
2022-12-23T02:19:12.791Z,28.61
2022-12-23T02:24:36.254Z,27.92
2022-12-23T02:30:07.889Z,28.41
2022-12-23T02:35:16.134Z,28.18
2022-12-23T02:40:28.232Z,31.78
2022-12-23T02:45:37.220Z,28.23
2022-12-23T02:50:45.339Z,32.20
2022-12-23T02:55:54.432Z,27.87
2022-12-23T03:01:01.045Z,27.62
2022-12-23T03:06:15.243Z,29.08
2022-12-23T03:11:19.511Z,27.15
2022-12-23T03:16:25.272Z,27.60
2022-12-23T03:21:36.779Z,26.49
2022-12-23T03:26:48.254Z,26.52
2022-12-23T03:31:54.425Z,25.74
2022-12-23T03:37:02.825Z,28.96
2022-12-23T03:42:11.149Z,25.78
2022-12-23T03:47:22.965Z,25.88
2022-12-23T03:52:32.877Z,33.22
2022-12-23T03:57:42.344Z,26.07
2022-12-23T04:02:53.770Z,25.90
2022-12-23T04:08:07.186Z,25.55
2022-12-23T04:13:10.716Z,25.75
2022-12-23T04:18:14.195Z,22.80
2022-12-23T04:23:21.151Z,22.47
2022-12-23T04:28:24.574Z,23.44
2022-12-23T04:33:33.368Z,22.22
2022-12-23T04:38:38.200Z,25.60
2022-12-23T04:43:41.658Z,26.04
2022-12-23T04:48:45.052Z,26.64
2022-12-23T04:53:49.814Z,26.08
2022-12-23T04:58:55.509Z,26.26
2022-12-23T05:03:58.860Z,27.01
2022-12-23T05:15:12.526Z,27.71
2022-12-23T05:20:16.029Z,27.32
2022-12-23T05:25:21.955Z,28.16
2022-12-23T05:30:26.676Z,30.52
2022-12-23T05:35:30.126Z,27.29
2022-12-23T05:40:33.975Z,26.12
2022-12-23T05:45:41.326Z,26.67
2022-12-23T05:50:49.925Z,26.17
2022-12-23T05:55:53.321Z,27.65
2022-12-23T06:00:58.073Z,27.96
2022-12-23T06:06:01.584Z,26.92
2022-12-23T06:11:05.841Z,27.52
2022-12-23T06:16:10.675Z,27.76
2022-12-23T06:21:16.603Z,28.54
2022-12-23T06:26:20.010Z,28.75
2022-12-23T06:31:24.873Z,31.14
2022-12-23T06:36:30.782Z,33.50
2022-12-23T06:41:36.730Z,32.81
2022-12-23T06:46:43.895Z,29.64
2022-12-23T06:52:07.417Z,28.75
2022-12-23T06:57:13.833Z,31.34
2022-12-23T07:02:18.692Z,30.91
2022-12-23T07:07:23.741Z,33.00
2022-12-23T07:12:29.265Z,31.64
2022-12-23T07:17:34.351Z,30.59
2022-12-23T07:22:39.210Z,31.71
2022-12-23T07:27:42.638Z,31.16
2022-12-23T07:32:50.558Z,29.54
2022-12-23T07:37:55.518Z,32.93
2022-12-23T07:42:59.911Z,31.01
2022-12-23T07:48:04.789Z,29.90
2022-12-23T07:53:10.524Z,31.00
2022-12-23T07:58:13.876Z,31.76
2022-12-23T08:03:18.865Z,31.05
2022-12-23T08:08:22.454Z,30.20
2022-12-23T08:13:28.852Z,29.79
2022-12-23T08:18:37.503Z,29.49
2022-12-23T08:23:40.886Z,29.80
2022-12-23T08:28:45.230Z,29.67
2022-12-23T08:33:54.019Z,29.31
2022-12-23T08:38:58.783Z,30.44
2022-12-23T08:44:02.197Z,30.40
2022-12-23T08:49:07.731Z,30.56
2022-12-23T08:54:13.413Z,30.44
2022-12-23T08:59:19.695Z,30.29
2022-12-23T09:04:27.127Z,30.53
2022-12-23T09:09:32.880Z,31.99
2022-12-23T09:14:36.282Z,30.33
2022-12-23T09:19:50.339Z,32.09
2022-12-23T09:25:03.122Z,32.35
2022-12-23T09:30:11.399Z,33.80
2022-12-23T09:35:19.462Z,33.81
2022-12-23T09:40:23.559Z,33.06
2022-12-23T09:45:40.948Z,34.91
2022-12-23T09:50:48.447Z,33.74
2022-12-23T09:55:56.181Z,33.55
2022-12-23T10:01:09.784Z,32.58
2022-12-23T10:06:21.622Z,33.36
2022-12-23T10:11:31.873Z,32.65
2022-12-23T10:16:41.983Z,34.14
2022-12-23T10:21:50.288Z,32.10
2022-12-23T10:26:54.910Z,31.90
2022-12-23T10:32:06.422Z,30.07
2022-12-23T10:37:20.489Z,31.21
2022-12-23T10:42:29.492Z,32.13
2022-12-23T10:47:46.995Z,31.97
2022-12-23T10:52:53.733Z,30.79
2022-12-23T10:58:04.778Z,31.33
2022-12-23T11:03:18.083Z,30.01
2022-12-23T11:08:24.280Z,31.40
2022-12-23T11:13:36.306Z,31.34
2022-12-23T11:18:53.194Z,35.69
2022-12-23T11:24:15.558Z,32.44
2022-12-23T11:29:25.169Z,33.16
2022-12-23T11:34:37.375Z,31.98
2022-12-23T11:39:48.050Z,32.84
2022-12-23T11:44:54.795Z,32.67
2022-12-23T11:50:03.121Z,33.05
2022-12-23T11:55:07.105Z,34.58
2022-12-23T12:00:20.999Z,33.49
2022-12-23T12:05:31.004Z,31.92
2022-12-23T12:10:36.478Z,33.88
2022-12-23T12:15:48.675Z,34.51
2022-12-23T12:20:55.353Z,35.74
2022-12-23T12:26:04.133Z,34.18
2022-12-23T12:31:21.391Z,35.73
2022-12-23T12:36:34.087Z,35.47
2022-12-23T12:41:40.439Z,35.48
2022-12-23T12:46:50.533Z,37.99
2022-12-23T12:52:03.670Z,37.63
2022-12-23T12:57:07.141Z,38.49
2022-12-23T13:02:28.521Z,37.00
2022-12-23T13:07:39.535Z,37.27
2022-12-23T13:12:55.150Z,38.14
2022-12-23T13:18:22.724Z,46.48
2022-12-23T13:23:45.885Z,36.95
2022-12-23T13:28:57.360Z,38.39
2022-12-23T13:34:12.288Z,36.19
2022-12-23T13:39:28.069Z,40.93
2022-12-23T13:44:34.597Z,40.04
2022-12-23T13:49:47.433Z,38.21
2022-12-23T13:54:58.279Z,38.67
2022-12-23T14:00:06.342Z,38.41
2022-12-23T14:05:31.796Z,37.85
2022-12-23T14:10:36.688Z,38.03
2022-12-23T14:15:53.875Z,37.30
2022-12-23T14:21:10.234Z,39.15
2022-12-23T14:26:25.409Z,36.43
2022-12-23T14:31:34.729Z,36.37
2022-12-23T14:37:04.092Z,36.56
2022-12-23T14:42:14.923Z,36.50
2022-12-23T14:47:31.715Z,35.48
2022-12-23T14:52:51.776Z,34.09
2022-12-23T14:58:07.596Z,34.50
2022-12-23T15:03:14.070Z,36.57
2022-12-23T15:08:30.015Z,33.95
2022-12-23T15:13:36.223Z,34.62
2022-12-23T15:18:52.511Z,36.02
2022-12-23T15:24:00.495Z,34.19
2022-12-23T15:29:03.973Z,33.33
2022-12-23T15:34:16.760Z,33.36
2022-12-23T15:39:28.357Z,41.06
2022-12-23T15:44:36.328Z,33.52
2022-12-23T15:49:42.757Z,34.34
2022-12-23T15:54:56.577Z,36.80
2022-12-23T16:00:02.534Z,40.53
2022-12-23T16:05:28.437Z,34.84
2022-12-23T16:10:33.135Z,31.43
2022-12-23T16:15:36.563Z,27.63
2022-12-23T16:20:43.009Z,29.75
2022-12-23T16:25:51.110Z,28.26
2022-12-23T16:31:00.116Z,28.50
2022-12-23T16:36:16.043Z,30.40
2022-12-23T16:41:21.503Z,40.13
2022-12-23T16:46:28.374Z,28.31
2022-12-23T16:51:34.607Z,26.06
2022-12-23T16:56:41.864Z,27.60
2022-12-23T17:01:47.059Z,31.28
2022-12-23T17:06:55.140Z,48.17
2022-12-23T17:12:04.851Z,34.21
2022-12-23T17:17:14.179Z,34.25
2022-12-23T17:22:17.834Z,32.91
2022-12-23T17:27:25.345Z,33.46
2022-12-23T17:32:31.312Z,32.98
2022-12-23T17:37:40.605Z,33.43
2022-12-23T17:42:49.091Z,32.47
2022-12-23T17:47:54.767Z,34.97
2022-12-23T17:53:03.115Z,34.90
2022-12-23T17:58:12.159Z,33.68
2022-12-23T18:03:22.642Z,33.65
2022-12-23T18:08:26.130Z,31.68
2022-12-23T18:13:31.383Z,32.09
2022-12-23T18:18:46.236Z,35.04
2022-12-23T18:23:51.215Z,29.79
2022-12-23T18:29:00.004Z,32.01
2022-12-23T18:34:06.137Z,30.75
2022-12-23T18:39:09.643Z,30.19
2022-12-23T18:44:18.601Z,28.66
2022-12-23T18:49:22.083Z,35.78
2022-12-23T18:54:25.559Z,31.71
2022-12-23T18:59:31.599Z,29.68
2022-12-23T19:04:37.620Z,29.49
2022-12-23T19:09:51.689Z,30.71
2022-12-23T19:14:56.517Z,30.94
2022-12-23T19:20:00.398Z,42.99
2022-12-23T19:25:06.317Z,37.42
2022-12-23T19:30:15.046Z,28.93
2022-12-23T19:35:20.774Z,29.53
2022-12-23T19:40:24.215Z,30.16
2022-12-23T19:45:30.194Z,28.72
2022-12-23T19:50:36.123Z,29.34
2022-12-23T19:55:39.584Z,30.20
2022-12-23T20:00:44.461Z,30.99
2022-12-23T20:05:48.551Z,27.29
2022-12-23T20:10:52.023Z,28.68
2022-12-23T20:15:56.855Z,29.73
2022-12-23T20:21:01.147Z,30.27
2022-12-23T20:26:06.842Z,29.44
2022-12-23T20:31:16.232Z,28.63
2022-12-23T20:36:23.962Z,29.07
2022-12-23T20:41:29.686Z,32.57
2022-12-23T20:46:34.617Z,33.00
2022-12-23T20:51:55.472Z,31.77
2022-12-23T20:56:59.411Z,32.74
2022-12-23T21:02:04.515Z,33.20
2022-12-23T21:07:10.636Z,32.82
2022-12-23T21:12:16.361Z,31.60
2022-12-23T21:17:21.238Z,31.81
2022-12-23T21:22:24.766Z,33.65
2022-12-23T21:27:28.211Z,33.41
2022-12-23T21:32:32.965Z,35.04
2022-12-23T21:37:41.416Z,35.32
2022-12-23T21:42:47.247Z,37.54
2022-12-23T21:47:52.353Z,36.61
2022-12-23T21:52:57.835Z,36.10
2022-12-23T21:58:03.577Z,36.79
2022-12-23T22:03:08.339Z,36.98
2022-12-23T22:08:12.531Z,37.96
2022-12-23T22:13:16.003Z,37.01
2022-12-23T22:18:21.116Z,39.30
2022-12-23T22:23:29.565Z,40.56
2022-12-23T22:28:33.614Z,38.92
2022-12-23T22:33:38.384Z,40.01
2022-12-23T22:38:44.761Z,39.48
2022-12-23T22:43:50.398Z,38.09
2022-12-23T22:49:18.322Z,38.92
2022-12-23T22:54:40.754Z,40.13
2022-12-23T22:59:44.349Z,39.66
2022-12-23T23:04:49.119Z,37.50
2022-12-23T23:09:52.569Z,35.30
2022-12-23T23:14:56.019Z,37.31
2022-12-23T23:20:00.824Z,34.54
2022-12-23T23:25:04.543Z,33.41
2022-12-23T23:30:12.859Z,32.65
2022-12-23T23:35:17.740Z,32.17
2022-12-23T23:40:21.122Z,32.71
2022-12-23T23:45:24.521Z,36.43
2022-12-23T23:50:29.301Z,33.83
2022-12-23T23:55:33.321Z,30.62
